Time,TemperatureF,DewpointF,PressureIn,WindDirection,WindDirectionDegrees,WindSpeedMPH,WindSpeedGustMPH,Humidity,HourlyPrecipIn,Conditions,Clouds,dailyrainin,SolarRadiationWatts/m^2,SoftwareType,DateUTC
2013-08-29 00:18:00,75.0,70.0,-100.00,SSE,157,3.0,-999.0,85,0.00,,,-99.99,0.000000,,2013-08-29 04:18:00,
2013-08-29 00:28:00,75.0,70.0,-100.00,SSE,155,2.0,-999.0,84,0.00,,,-99.99,0.000000,,2013-08-29 04:28:00,
2013-08-29 00:54:00,73.0,69.0,-100.00,South,175,1.0,-999.0,87,0.00,,,-99.99,0.000000,,2013-08-29 04:54:00,
2013-08-29 01:14:00,73.0,69.0,-100.00,SE,132,0.0,-999.0,88,0.00,,,-99.99,0.000000,,2013-08-29 05:14:00,
2013-08-29 01:23:00,73.0,69.0,-100.00,SSE,158,0.0,-999.0,88,0.00,,,-99.99,0.000000,,2013-08-29 05:23:00,
2013-08-29 01:52:00,72.0,69.0,-100.00,NNW,345,0.0,-999.0,90,0.00,,,-99.99,0.000000,,2013-08-29 05:52:00,
2013-08-29 02:12:00,73.0,70.0,-100.00,SSW,208,1.0,-999.0,91,0.00,,,-99.99,0.000000,,2013-08-29 06:12:00,
2013-08-29 02:22:00,72.0,70.0,-100.00,WSW,249,2.0,-999.0,92,0.00,,,-99.99,0.000000,,2013-08-29 06:22:00,
2013-08-29 02:52:00,74.0,72.0,-100.00,SW,223,3.0,-999.0,93,0.00,,,-99.99,0.000000,,2013-08-29 06:52:00,
2013-08-29 03:12:00,74.0,72.0,-100.00,West,268,2.0,-999.0,92,0.00,,,-99.99,0.000000,,2013-08-29 07:12:00,
2013-08-29 03:22:00,74.0,71.0,-100.00,SW,215,2.0,-999.0,91,0.00,,,-99.99,0.000000,,2013-08-29 07:22:00,
2013-08-29 03:53:00,73.0,71.0,-100.00,WSW,237,1.0,-999.0,93,0.00,,,-99.99,0.000000,,2013-08-29 07:53:00,
2013-08-29 04:12:00,72.0,71.0,-100.00,SE,138,1.0,-999.0,94,0.00,,,-99.99,0.000000,,2013-08-29 08:12:00,
2013-08-29 04:22:00,72.0,71.0,-100.00,SSE,159,2.0,-999.0,94,0.00,,,-99.99,0.000000,,2013-08-29 08:22:00,
2013-08-29 04:52:00,72.0,71.0,-100.00,SSW,195,1.0,-999.0,95,0.00,,,-99.99,0.000000,,2013-08-29 08:52:00,
2013-08-29 05:12:00,72.0,71.0,-100.00,SW,236,1.0,-999.0,95,0.00,,,-99.99,0.000000,,2013-08-29 09:12:00,
2013-08-29 05:22:00,72.0,70.0,-100.00,SSE,161,1.0,-999.0,96,0.00,,,-99.99,0.000000,,2013-08-29 09:22:00,
2013-08-29 05:55:00,71.0,70.0,-100.00,SW,235,1.0,-999.0,96,0.00,,,-99.99,0.000000,,2013-08-29 09:55:00,
2013-08-29 06:15:00,72.0,71.0,-100.00,WNW,288,2.0,-999.0,97,0.00,,,-99.99,0.000000,,2013-08-29 10:15:00,
2013-08-29 06:24:00,72.0,71.0,-100.00,West,278,2.0,-999.0,97,0.00,,,-99.99,0.100000,,2013-08-29 10:24:00,
2013-08-29 06:43:00,72.0,71.0,-100.00,WNW,295,2.0,-999.0,97,0.00,,,-99.99,0.100000,,2013-08-29 10:43:00,
2013-08-29 06:53:00,72.0,71.0,-100.00,SW,235,1.0,-999.0,97,0.00,,,-99.99,0.100000,,2013-08-29 10:53:00,
2013-08-29 07:12:00,72.0,71.0,-100.00,WNW,286,2.0,-999.0,98,0.00,,,-99.99,0.100000,,2013-08-29 11:12:00,
2013-08-29 07:22:00,72.0,72.0,-100.00,NW,308,2.0,-999.0,98,0.00,,,-99.99,1.000000,,2013-08-29 11:22:00,
2013-08-29 07:32:00,72.0,72.0,-100.00,NW,308,2.0,-999.0,98,0.00,,,-99.99,1.000000,,2013-08-29 11:32:00,
2013-08-29 07:52:00,72.0,72.0,-100.00,SE,126,1.0,-999.0,98,0.00,,,-99.99,27.200001,,2013-08-29 11:52:00,
2013-08-29 08:12:00,73.0,72.0,-100.00,WNW,301,0.0,-999.0,97,0.00,,,-99.99,69.900002,,2013-08-29 12:12:00,
2013-08-29 08:22:00,75.0,74.0,-100.00,South,182,1.0,-999.0,96,0.00,,,-99.99,115.900002,,2013-08-29 12:22:00,
2013-08-29 08:42:00,77.0,75.0,-100.00,WNW,295,1.0,-999.0,95,0.00,,,-99.99,134.699997,,2013-08-29 12:42:00,
2013-08-29 08:52:00,78.0,76.0,-100.00,West,275,2.0,-999.0,93,0.00,,,-99.99,186.600006,,2013-08-29 12:52:00,
2013-08-29 09:12:00,79.0,76.0,-100.00,West,280,2.0,-999.0,90,0.00,,,-99.99,253.399994,,2013-08-29 13:12:00,
2013-08-29 09:22:00,80.0,74.0,-100.00,West,268,3.0,-999.0,83,0.00,,,-99.99,303.000000,,2013-08-29 13:22:00,
2013-08-29 09:32:00,80.0,74.0,-100.00,West,268,3.0,-999.0,83,0.00,,,-99.99,303.000000,,2013-08-29 13:32:00,
2013-08-29 09:52:00,81.0,73.0,-100.00,West,270,4.0,-999.0,77,0.00,,,-99.99,402.799988,,2013-08-29 13:52:00,
2013-08-29 10:11:00,82.0,73.0,-100.00,West,277,4.0,-999.0,74,0.00,,,-99.99,450.000000,,2013-08-29 14:11:00,
2013-08-29 10:22:00,83.0,73.0,-100.00,West,276,3.0,-999.0,71,0.00,,,-99.99,497.299988,,2013-08-29 14:22:00,
2013-08-29 10:52:00,85.0,73.0,-100.00,NW,317,4.0,-999.0,68,0.00,,,-99.99,576.400024,,2013-08-29 14:52:00,
2013-08-29 11:12:00,86.0,74.0,-100.00,NW,320,3.0,-999.0,67,0.00,,,-99.99,626.400024,,2013-08-29 15:12:00,
2013-08-29 11:22:00,86.0,73.0,-100.00,NW,313,4.0,-999.0,65,0.00,,,-99.99,665.000000,,2013-08-29 15:22:00,
2013-08-29 11:43:00,86.0,72.0,-100.00,NW,321,4.0,-999.0,63,0.00,,,-99.99,700.000000,,2013-08-29 15:43:00,
2013-08-29 11:53:00,87.0,73.0,-100.00,NW,313,4.0,-999.0,62,0.00,,,-99.99,735.000000,,2013-08-29 15:53:00,
2013-08-29 12:13:00,87.0,72.0,-100.00,WNW,299,4.0,-999.0,60,0.00,,,-99.99,764.000000,,2013-08-29 16:13:00,
2013-08-29 12:24:00,88.0,72.0,-100.00,NW,314,4.0,-999.0,58,0.00,,,-99.99,792.000000,,2013-08-29 16:24:00,
2013-08-29 12:54:00,90.0,72.0,-100.00,West,264,3.0,-999.0,56,0.00,,,-99.99,840.000000,,2013-08-29 16:54:00,
2013-08-29 13:13:00,89.0,71.0,-100.00,WNW,292,4.0,-999.0,55,0.00,,,-99.99,863.000000,,2013-08-29 17:13:00,
2013-08-29 13:23:00,90.0,71.0,-100.00,NNW,334,3.0,-999.0,54,0.00,,,-99.99,560.799988,,2013-08-29 17:23:00,
2013-08-29 13:53:00,90.0,71.0,-100.00,WSW,256,3.0,-999.0,53,0.00,,,-99.99,958.000000,,2013-08-29 17:53:00,
2013-08-29 14:12:00,90.0,70.0,-100.00,SSE,168,3.0,-999.0,52,0.00,,,-99.99,603.599976,,2013-08-29 18:12:00,
2013-08-29 14:22:00,90.0,71.0,-100.00,West,273,3.0,-999.0,53,0.00,,,-99.99,666.900024,,2013-08-29 18:22:00,
2013-08-29 14:52:00,91.0,70.0,-100.00,SSW,194,5.0,-999.0,49,0.00,,,-99.99,922.000000,,2013-08-29 18:52:00,
2013-08-29 15:11:00,91.0,69.0,-100.00,SW,224,3.0,-999.0,48,0.00,,,-99.99,724.000000,,2013-08-29 19:11:00,
2013-08-29 15:22:00,92.0,69.0,-100.00,SW,231,5.0,-999.0,46,0.00,,,-99.99,737.000000,,2013-08-29 19:22:00,
2013-08-29 15:53:00,92.0,69.0,-100.00,WSW,254,4.0,-999.0,48,0.00,,,-99.99,785.000000,,2013-08-29 19:53:00,
2013-08-29 16:13:00,92.0,69.0,-100.00,SW,230,3.0,-999.0,47,0.00,,,-99.99,758.000000,,2013-08-29 20:13:00,
2013-08-29 16:22:00,91.0,70.0,-100.00,SW,221,3.0,-999.0,49,0.00,,,-99.99,507.000000,,2013-08-29 20:22:00,
2013-08-29 16:42:00,93.0,70.0,-100.00,SSW,194,2.0,-999.0,47,0.00,,,-99.99,653.700012,,2013-08-29 20:42:00,
2013-08-29 16:52:00,93.0,70.0,-100.00,South,175,3.0,-999.0,47,0.00,,,-99.99,574.700012,,2013-08-29 20:52:00,
2013-08-29 17:01:00,93.0,70.0,-100.00,South,175,3.0,-999.0,47,0.00,,,-99.99,574.700012,,2013-08-29 21:01:00,
2013-08-29 17:12:00,93.0,70.0,-100.00,South,175,3.0,-999.0,47,0.00,,,-99.99,574.700012,,2013-08-29 21:12:00,
2013-08-29 17:22:00,92.0,70.0,-100.00,South,188,4.0,-999.0,49,0.00,,,-99.99,514.000000,,2013-08-29 21:22:00,
2013-08-29 17:44:00,92.0,70.0,-100.00,SW,214,4.0,-999.0,48,0.00,,,-99.99,568.200012,,2013-08-29 21:44:00,
2013-08-29 17:54:00,92.0,70.0,-100.00,SSW,194,4.0,-999.0,47,0.00,,,-99.99,531.400024,,2013-08-29 21:54:00,
2013-08-29 18:14:00,92.0,71.0,-100.00,SSW,206,5.0,-999.0,50,0.00,,,-99.99,468.899994,,2013-08-29 22:14:00,
2013-08-29 18:24:00,92.0,70.0,-100.00,South,176,5.0,-999.0,49,0.00,,,-99.99,243.300003,,2013-08-29 22:24:00,
2013-08-29 18:43:00,92.0,71.0,-100.00,SSW,203,5.0,-999.0,50,0.00,,,-99.99,303.200012,,2013-08-29 22:43:00,
2013-08-29 18:53:00,91.0,70.0,-100.00,South,188,6.0,-999.0,51,0.00,,,-99.99,226.600006,,2013-08-29 22:53:00,
2013-08-29 19:13:00,91.0,71.0,-100.00,SSW,200,3.0,-999.0,51,0.00,,,-99.99,122.900002,,2013-08-29 23:13:00,
2013-08-29 19:22:00,90.0,70.0,-100.00,SSE,168,4.0,-999.0,52,0.00,,,-99.99,65.400002,,2013-08-29 23:22:00,
2013-08-29 19:43:00,89.0,70.0,-100.00,SE,126,4.0,-999.0,55,0.00,,,-99.99,43.599998,,2013-08-29 23:43:00,
2013-08-29 19:53:00,88.0,71.0,-100.00,South,183,4.0,-999.0,57,0.00,,,-99.99,24.100000,,2013-08-29 23:53:00,
2013-08-29 20:22:00,85.0,73.0,-100.00,West,272,5.0,-999.0,66,0.00,,,-99.99,0.800000,,2013-08-30 00:22:00,
2013-08-29 20:52:00,84.0,75.0,-100.00,SSW,212,5.0,-999.0,74,0.00,,,-99.99,0.000000,,2013-08-30 00:52:00,
2013-08-29 21:12:00,83.0,75.0,-100.00,SW,233,5.0,-999.0,77,0.00,,,-99.99,0.000000,,2013-08-30 01:12:00,
2013-08-29 21:22:00,82.0,75.0,-100.00,SW,228,4.0,-999.0,79,0.00,,,-99.99,0.000000,,2013-08-30 01:22:00,
2013-08-29 21:52:00,81.0,75.0,-100.00,SW,223,3.0,-999.0,83,0.00,,,-99.99,0.000000,,2013-08-30 01:52:00,
2013-08-29 22:11:00,81.0,74.0,-100.00,WSW,238,4.0,-999.0,80,0.00,,,-99.99,0.000000,,2013-08-30 02:11:00,
2013-08-29 22:22:00,81.0,74.0,-100.00,WSW,240,2.0,-999.0,78,0.00,,,-99.99,0.000000,,2013-08-30 02:22:00,
2013-08-29 22:52:00,81.0,75.0,-100.00,SSE,155,2.0,-999.0,80,0.00,,,-99.99,0.000000,,2013-08-30 02:52:00,
2013-08-29 23:12:00,81.0,75.0,-100.00,SSE,154,2.0,-999.0,83,0.00,,,-99.99,0.000000,,2013-08-30 03:12:00,
2013-08-29 23:22:00,80.0,75.0,-100.00,South,180,2.0,-999.0,85,0.00,,,-99.99,0.000000,,2013-08-30 03:22:00,
2013-08-29 23:55:00,79.0,75.0,-100.00,SSE,161,2.0,-999.0,87,0.00,,,-99.99,0.000000,,2013-08-30 03:55:00,